createdAt,value
2022-12-06T00:01:25.951Z,88.05
2022-12-06T00:03:55.487Z,88.31
2022-12-06T00:06:25.639Z,88.44
2022-12-06T00:08:53.755Z,88.11
2022-12-06T00:11:22.500Z,87.09
2022-12-06T00:13:55.634Z,87.83
2022-12-06T00:16:24.679Z,88.35
2022-12-06T00:18:52.980Z,88.76
2022-12-06T00:21:22.595Z,89.46
2022-12-06T00:23:52.132Z,89.19
2022-12-06T00:26:20.602Z,88.84
2022-12-06T00:28:48.526Z,88.44
2022-12-06T00:31:20.052Z,87.61
2022-12-06T00:33:47.685Z,87.60
2022-12-06T00:36:16.906Z,88.04
2022-12-06T00:38:44.723Z,89.17
2022-12-06T00:41:14.177Z,89.35
2022-12-06T00:43:41.825Z,90.01
2022-12-06T00:46:13.156Z,90.68
2022-12-06T00:48:42.291Z,91.30
2022-12-06T00:51:10.105Z,90.93
2022-12-06T00:53:37.745Z,90.24
2022-12-06T00:56:05.856Z,89.62
2022-12-06T00:58:33.760Z,89.35
2022-12-06T01:01:09.382Z,90.48
2022-12-06T01:03:37.110Z,91.26
2022-12-06T01:06:07.343Z,91.23
2022-12-06T01:08:35.645Z,91.73
2022-12-06T01:11:03.843Z,90.94
2022-12-06T01:13:31.623Z,90.24
2022-12-06T01:16:05.620Z,90.38
2022-12-06T01:18:33.108Z,89.84
2022-12-06T01:21:06.424Z,90.24
2022-12-06T01:23:33.985Z,90.31
2022-12-06T01:26:01.675Z,91.26
2022-12-06T01:28:29.352Z,90.85
2022-12-06T01:30:56.879Z,91.15
2022-12-06T01:33:28.079Z,91.30
2022-12-06T01:35:55.559Z,90.73
2022-12-06T01:38:24.392Z,90.96
2022-12-06T01:40:52.133Z,91.26
2022-12-06T01:43:37.349Z,91.66
2022-12-06T01:46:13.988Z,91.80
2022-12-06T01:48:42.456Z,91.42
2022-12-06T01:51:12.943Z,91.82
2022-12-06T01:53:45.017Z,92.40
2022-12-06T01:56:12.756Z,93.23
2022-12-06T01:58:42.382Z,92.24
2022-12-06T02:01:11.343Z,92.03
2022-12-06T02:03:39.332Z,92.88
2022-12-06T02:06:09.407Z,92.80
2022-12-06T02:08:38.112Z,92.36
2022-12-06T02:11:07.218Z,91.54
2022-12-06T02:13:36.326Z,91.98
2022-12-06T02:16:16.490Z,92.68
2022-12-06T02:18:50.844Z,92.85
2022-12-06T02:21:27.969Z,93.23
2022-12-06T02:24:36.266Z,92.51
2022-12-06T02:27:22.034Z,92.28
2022-12-06T02:30:08.449Z,91.97
2022-12-06T02:32:49.221Z,92.13
2022-12-06T02:35:28.518Z,92.26
2022-12-06T02:38:06.648Z,91.41
2022-12-06T02:40:39.443Z,90.97
2022-12-06T02:43:10.705Z,90.61
2022-12-06T02:45:43.974Z,91.33
2022-12-06T02:48:15.352Z,91.28
2022-12-06T02:50:47.544Z,91.64
2022-12-06T02:53:18.529Z,91.95
2022-12-06T02:55:47.431Z,91.83
2022-12-06T02:58:14.894Z,92.32
2022-12-06T03:00:44.587Z,93.08
2022-12-06T03:03:25.441Z,92.67
2022-12-06T03:06:34.422Z,92.47
2022-12-06T03:09:10.587Z,91.97
2022-12-06T03:11:51.293Z,91.90
2022-12-06T03:14:22.319Z,91.51
2022-12-06T03:16:55.255Z,91.62
2022-12-06T03:19:26.578Z,91.24
2022-12-06T03:21:59.867Z,91.62
2022-12-06T03:24:29.483Z,91.48
2022-12-06T03:27:00.712Z,91.62
2022-12-06T03:29:31.693Z,92.25
2022-12-06T03:32:02.996Z,91.95
2022-12-06T03:34:37.331Z,92.29
2022-12-06T03:37:07.279Z,92.35
2022-12-06T03:39:39.875Z,91.76
2022-12-06T03:42:08.318Z,90.53
2022-12-06T03:44:36.461Z,90.73
2022-12-06T03:47:08.365Z,90.74
2022-12-06T03:49:42.989Z,90.10
2022-12-06T03:52:10.927Z,90.84
2022-12-06T03:54:39.797Z,91.16
2022-12-06T03:57:07.537Z,90.78
2022-12-06T03:59:35.052Z,91.08
2022-12-06T04:02:02.574Z,91.58
2022-12-06T04:04:30.147Z,90.90
2022-12-06T04:06:58.955Z,91.37
2022-12-06T04:09:43.923Z,90.80
2022-12-06T04:12:25.384Z,91.19
2022-12-06T04:14:52.854Z,90.95
2022-12-06T04:17:37.945Z,91.25
2022-12-06T04:20:06.728Z,91.43
2022-12-06T04:22:53.377Z,91.39
2022-12-06T04:25:20.978Z,91.41
2022-12-06T04:28:02.396Z,90.81
2022-12-06T04:30:47.300Z,90.54
2022-12-06T04:33:32.526Z,91.32
2022-12-06T04:36:17.389Z,91.73
2022-12-06T04:38:46.195Z,91.43
2022-12-06T04:41:35.146Z,90.00
2022-12-06T04:44:01.682Z,90.14
2022-12-06T04:46:29.269Z,89.09
2022-12-06T04:48:56.895Z,90.03
2022-12-06T04:51:25.262Z,89.60
2022-12-06T04:53:54.186Z,89.23
2022-12-06T04:56:22.006Z,89.72
2022-12-06T04:58:49.500Z,89.71
2022-12-06T05:01:17.041Z,89.94
2022-12-06T05:03:44.738Z,89.72
2022-12-06T05:06:12.527Z,89.82
2022-12-06T05:08:40.094Z,90.54
2022-12-06T05:11:08.988Z,88.87
2022-12-06T05:13:36.864Z,90.15
2022-12-06T05:16:06.695Z,89.72
2022-12-06T05:18:35.106Z,90.58
2022-12-06T05:21:04.125Z,90.93
2022-12-06T05:23:31.586Z,90.96
2022-12-06T05:26:00.283Z,90.41
2022-12-06T05:28:29.927Z,89.51
2022-12-06T05:30:57.645Z,90.23
2022-12-06T05:33:25.992Z,89.24
2022-12-06T05:35:53.759Z,89.19
2022-12-06T05:38:21.505Z,90.08
2022-12-06T05:40:49.011Z,89.82
2022-12-06T05:43:17.331Z,90.55
2022-12-06T05:45:46.165Z,89.37
2022-12-06T05:48:13.662Z,90.33
2022-12-06T05:50:41.142Z,90.93
2022-12-06T05:53:08.627Z,90.80
2022-12-06T05:55:36.121Z,89.96
2022-12-06T05:58:03.593Z,89.85
2022-12-06T06:00:31.088Z,89.74
2022-12-06T06:03:00.065Z,90.03
2022-12-06T06:05:27.710Z,89.81
2022-12-06T06:07:55.579Z,90.18
2022-12-06T06:10:23.219Z,90.72
2022-12-06T06:12:50.868Z,90.89
2022-12-06T06:15:18.891Z,89.96
2022-12-06T06:17:46.228Z,89.85
2022-12-06T06:20:15.218Z,89.94
2022-12-06T06:22:43.233Z,89.98
2022-12-06T06:25:11.238Z,90.09
2022-12-06T06:27:38.946Z,89.92
2022-12-06T06:30:08.739Z,89.77
2022-12-06T06:32:36.411Z,89.54
2022-12-06T06:35:05.210Z,89.51
2022-12-06T06:37:34.418Z,90.03
2022-12-06T06:40:02.644Z,90.33
2022-12-06T06:42:30.460Z,90.23
2022-12-06T06:44:57.953Z,89.58
2022-12-06T06:47:25.423Z,89.68
2022-12-06T06:49:52.892Z,89.48
2022-12-06T06:52:20.605Z,89.17
2022-12-06T06:54:49.442Z,89.17
2022-12-06T06:57:18.300Z,89.20
2022-12-06T06:59:45.819Z,89.44
2022-12-06T07:02:14.122Z,88.56
2022-12-06T07:04:42.324Z,89.19
2022-12-06T07:07:10.039Z,89.83
2022-12-06T07:09:37.788Z,88.91
2022-12-06T07:12:07.086Z,89.00
2022-12-06T07:14:34.828Z,88.79
2022-12-06T07:17:02.543Z,89.71
2022-12-06T07:19:30.107Z,90.12
2022-12-06T07:21:57.588Z,90.36
2022-12-06T07:24:25.106Z,91.06
2022-12-06T07:26:52.568Z,91.43
2022-12-06T07:29:21.393Z,90.40
2022-12-06T07:31:49.819Z,90.58
2022-12-06T07:34:17.435Z,91.34
2022-12-06T07:36:44.929Z,91.78
2022-12-06T07:39:15.007Z,92.45
2022-12-06T07:42:00.607Z,93.55
2022-12-06T07:44:47.400Z,93.42
2022-12-06T07:47:14.926Z,95.33
2022-12-06T07:49:42.502Z,95.35
2022-12-06T07:52:09.991Z,95.06
2022-12-06T07:54:37.505Z,94.38
2022-12-06T07:57:05.016Z,92.62
2022-12-06T07:59:34.931Z,92.22
2022-12-06T08:02:02.533Z,91.69
2022-12-06T08:04:30.302Z,90.69
2022-12-06T08:06:57.808Z,90.38
2022-12-06T08:09:25.369Z,90.99
2022-12-06T08:11:52.882Z,90.46
2022-12-06T08:14:20.373Z,90.17
2022-12-06T08:16:49.217Z,88.70
2022-12-06T08:19:16.843Z,89.11
2022-12-06T08:21:45.524Z,89.01
2022-12-06T08:24:13.542Z,89.27
2022-12-06T08:26:40.921Z,88.63
2022-12-06T08:29:08.471Z,88.46
2022-12-06T08:31:36.162Z,88.96
2022-12-06T08:34:05.727Z,88.84
2022-12-06T08:36:34.195Z,88.14
2022-12-06T08:39:02.011Z,88.08
2022-12-06T08:41:47.008Z,87.73
2022-12-06T08:44:16.231Z,89.16
2022-12-06T08:46:44.152Z,89.00
2022-12-06T08:49:14.273Z,89.26
2022-12-06T08:51:41.967Z,90.13
2022-12-06T08:54:10.721Z,91.16
2022-12-06T08:56:38.360Z,90.80
2022-12-06T08:59:06.134Z,90.73
2022-12-06T09:01:38.222Z,90.65
2022-12-06T09:04:08.160Z,90.31
2022-12-06T09:06:38.686Z,90.32
2022-12-06T09:09:06.530Z,90.31
2022-12-06T09:11:34.042Z,90.73
2022-12-06T09:14:01.544Z,91.34
2022-12-06T09:16:29.205Z,89.71
2022-12-06T09:18:56.751Z,88.94
2022-12-06T09:21:25.950Z,89.45
2022-12-06T09:23:57.759Z,89.68
2022-12-06T09:26:25.993Z,90.10
2022-12-06T09:28:55.697Z,88.08
2022-12-06T09:31:23.290Z,87.34
2022-12-06T09:33:51.171Z,87.65
2022-12-06T09:36:22.184Z,87.39
2022-12-06T09:38:54.573Z,87.85
2022-12-06T09:41:40.319Z,87.45
2022-12-06T09:44:25.362Z,87.23
2022-12-06T09:47:04.071Z,86.91
2022-12-06T09:49:33.256Z,86.70
2022-12-06T09:52:25.436Z,85.48
2022-12-06T09:55:07.365Z,85.69
2022-12-06T09:57:43.550Z,86.04
2022-12-06T10:00:20.610Z,85.27
2022-12-06T10:03:19.426Z,85.02
2022-12-06T10:06:02.698Z,84.95
2022-12-06T10:08:53.059Z,85.34
2022-12-06T10:11:32.232Z,85.17
2022-12-06T10:14:13.689Z,85.48
2022-12-06T10:16:54.597Z,86.16
2022-12-06T10:19:34.627Z,85.05
2022-12-06T10:22:12.392Z,85.39
2022-12-06T10:24:49.916Z,84.71
2022-12-06T10:27:23.928Z,84.63
2022-12-06T10:29:57.604Z,85.72
2022-12-06T10:32:41.553Z,86.61
2022-12-06T10:35:19.202Z,86.43
2022-12-06T10:37:57.014Z,86.28
2022-12-06T10:40:33.121Z,86.93
2022-12-06T10:43:11.203Z,87.84
2022-12-06T10:46:08.502Z,88.35
2022-12-06T10:48:42.443Z,89.19
2022-12-06T10:51:15.226Z,88.53
2022-12-06T10:53:49.308Z,89.25
2022-12-06T10:56:21.301Z,89.22
2022-12-06T10:58:55.036Z,89.41
2022-12-06T11:01:28.162Z,88.94
2022-12-06T11:04:01.171Z,88.43
2022-12-06T11:06:33.029Z,88.88
2022-12-06T11:09:05.694Z,88.64
2022-12-06T11:11:36.344Z,88.29
2022-12-06T11:14:07.978Z,88.03
2022-12-06T11:16:40.907Z,89.31
2022-12-06T11:19:21.385Z,88.48
2022-12-06T11:21:57.461Z,88.92
2022-12-06T11:24:31.720Z,88.55
2022-12-06T11:27:04.693Z,87.60
2022-12-06T11:29:32.616Z,87.22
2022-12-06T11:32:03.965Z,87.21
2022-12-06T11:34:36.792Z,87.02
2022-12-06T11:37:06.526Z,86.88
2022-12-06T11:39:34.889Z,87.01
2022-12-06T11:42:05.502Z,86.81
2022-12-06T11:44:46.289Z,86.64
2022-12-06T11:47:22.639Z,86.35
2022-12-06T11:49:52.424Z,85.40
2022-12-06T11:52:25.946Z,85.56
2022-12-06T11:54:58.757Z,85.50
2022-12-06T11:57:30.777Z,84.66
2022-12-06T12:00:14.364Z,85.07
2022-12-06T12:02:45.055Z,83.98
2022-12-06T12:05:19.540Z,84.76
2022-12-06T12:07:51.610Z,84.87
2022-12-06T12:10:28.839Z,83.98
2022-12-06T12:13:14.442Z,84.44
2022-12-06T12:15:51.100Z,84.00
2022-12-06T12:18:26.635Z,84.34
2022-12-06T12:20:55.869Z,84.77
2022-12-06T12:23:26.543Z,84.96
2022-12-06T12:26:02.766Z,84.79
2022-12-06T12:28:32.096Z,84.21
2022-12-06T12:31:00.934Z,84.43
2022-12-06T12:33:30.389Z,83.91
2022-12-06T12:36:15.787Z,83.79
2022-12-06T12:38:49.987Z,84.45
2022-12-06T12:41:27.219Z,83.71
2022-12-06T12:44:35.404Z,83.74
2022-12-06T12:46:53.396Z,83.48
2022-12-06T12:49:29.386Z,83.40
2022-12-06T12:51:57.917Z,83.86
2022-12-06T12:54:30.035Z,83.65
2022-12-06T12:57:03.317Z,83.74
2022-12-06T12:59:38.331Z,83.99
2022-12-06T13:02:16.582Z,84.17
2022-12-06T13:04:48.912Z,84.31
2022-12-06T13:07:28.452Z,84.81
2022-12-06T13:10:01.010Z,84.34
2022-12-06T13:12:34.078Z,84.73
2022-12-06T13:15:05.901Z,84.46
2022-12-06T13:17:36.872Z,85.47
2022-12-06T13:20:20.391Z,85.00
2022-12-06T13:22:53.745Z,84.83
2022-12-06T13:25:21.271Z,84.21
2022-12-06T13:27:55.237Z,83.55
2022-12-06T13:30:25.951Z,83.97
2022-12-06T13:32:56.102Z,85.20
2022-12-06T13:35:29.299Z,85.28
2022-12-06T13:37:58.566Z,85.08
2022-12-06T13:40:53.733Z,84.82
2022-12-06T13:43:49.802Z,85.98
2022-12-06T13:46:24.017Z,85.96
2022-12-06T13:48:53.107Z,86.73
2022-12-06T13:51:44.909Z,86.69
2022-12-06T13:54:36.178Z,88.45
2022-12-06T13:57:22.395Z,89.07
2022-12-06T13:59:50.223Z,89.51
2022-12-06T14:02:50.930Z,89.27
2022-12-06T14:08:32.850Z,89.98
2022-12-06T14:11:22.952Z,89.57
2022-12-06T14:14:01.504Z,89.59
2022-12-06T14:16:35.131Z,88.66
2022-12-06T14:19:05.302Z,88.73
2022-12-06T14:21:39.120Z,88.40
2022-12-06T14:24:08.132Z,89.02
2022-12-06T14:26:36.383Z,88.38
2022-12-06T14:29:03.975Z,87.85
2022-12-06T14:31:39.311Z,87.67
2022-12-06T14:34:06.871Z,87.84
2022-12-06T14:36:40.512Z,87.29
2022-12-06T14:39:17.164Z,87.95
2022-12-06T14:42:10.120Z,87.26
2022-12-06T14:44:37.725Z,86.63
2022-12-06T14:47:05.770Z,86.85
2022-12-06T14:49:52.525Z,86.24
2022-12-06T14:52:23.244Z,86.75
2022-12-06T14:54:52.991Z,87.00
2022-12-06T14:57:25.919Z,86.83
2022-12-06T15:00:25.831Z,86.66
2022-12-06T15:03:01.605Z,86.81
2022-12-06T15:05:35.136Z,86.39
2022-12-06T15:08:30.176Z,86.86
2022-12-06T15:11:00.890Z,86.93
2022-12-06T15:13:29.443Z,85.92
2022-12-06T15:16:04.139Z,86.33
2022-12-06T15:18:34.199Z,86.83
2022-12-06T15:21:01.848Z,86.28
2022-12-06T15:23:32.106Z,86.41
2022-12-06T15:26:00.953Z,86.96
2022-12-06T15:28:28.449Z,87.33
2022-12-06T15:30:55.970Z,86.97
2022-12-06T15:33:27.208Z,87.55
2022-12-06T15:35:54.977Z,87.38
2022-12-06T15:38:22.495Z,88.55
2022-12-06T15:40:51.760Z,87.67
2022-12-06T15:43:28.724Z,88.27
2022-12-06T15:45:57.047Z,87.10
2022-12-06T15:48:24.766Z,88.22
2022-12-06T15:50:52.416Z,88.04
2022-12-06T15:53:23.173Z,89.12
2022-12-06T15:55:51.036Z,89.64
2022-12-06T15:58:18.505Z,90.24
2022-12-06T16:00:47.667Z,91.38
2022-12-06T16:03:15.376Z,91.79
2022-12-06T16:05:42.969Z,92.23
2022-12-06T16:08:10.501Z,93.01
2022-12-06T16:11:10.325Z,93.46
2022-12-06T16:13:25.888Z,94.46
2022-12-06T16:15:54.798Z,95.23
2022-12-06T16:18:22.581Z,94.29
2022-12-06T16:20:52.987Z,94.33
2022-12-06T16:24:11.489Z,95.31
2022-12-06T16:26:29.421Z,95.49
2022-12-06T16:28:57.456Z,94.49
2022-12-06T16:31:26.522Z,94.65
2022-12-06T16:33:54.903Z,94.21
2022-12-06T16:36:24.757Z,94.79
2022-12-06T16:38:54.851Z,95.36
2022-12-06T16:41:25.927Z,94.26
2022-12-06T16:43:53.651Z,95.02
2022-12-06T16:46:29.299Z,94.66
2022-12-06T16:49:15.787Z,96.00
2022-12-06T16:51:46.824Z,95.66
2022-12-06T16:54:14.359Z,96.53
2022-12-06T16:56:41.964Z,97.93
2022-12-06T16:59:13.908Z,98.26
2022-12-06T17:01:48.052Z,99.22
2022-12-06T17:04:15.547Z,99.35
2022-12-06T17:06:43.067Z,98.91
2022-12-06T17:09:11.817Z,98.53
2022-12-06T17:11:59.012Z,98.24
2022-12-06T17:14:27.034Z,98.28
2022-12-06T17:16:55.747Z,97.29
2022-12-06T17:19:28.417Z,96.81
2022-12-06T17:21:56.737Z,97.00
2022-12-06T17:24:26.675Z,96.94
2022-12-06T17:26:55.177Z,97.67
2022-12-06T17:29:24.217Z,97.93
2022-12-06T17:31:52.303Z,97.62
2022-12-06T17:34:21.899Z,98.58
2022-12-06T17:36:50.483Z,99.05
2022-12-06T17:39:19.984Z,98.99
2022-12-06T17:42:05.387Z,98.74
2022-12-06T17:44:33.947Z,97.50
2022-12-06T17:47:02.086Z,97.63
2022-12-06T17:49:31.294Z,98.71
2022-12-06T17:51:58.950Z,97.98
2022-12-06T17:54:26.459Z,98.08
2022-12-06T17:56:56.160Z,97.75
2022-12-06T17:59:25.740Z,96.88
2022-12-06T18:02:14.574Z,97.83
2022-12-06T18:04:44.380Z,97.20
2022-12-06T18:07:12.023Z,97.21
2022-12-06T18:09:39.740Z,96.10
2022-12-06T18:12:09.056Z,96.35
2022-12-06T18:14:36.711Z,97.47
2022-12-06T18:17:04.989Z,97.45
2022-12-06T18:19:33.260Z,97.72
2022-12-06T18:22:02.370Z,98.21
2022-12-06T18:24:35.199Z,98.01
2022-12-06T18:27:03.452Z,99.18
2022-12-06T18:29:30.940Z,98.78
2022-12-06T18:31:58.645Z,98.50
2022-12-06T18:34:26.173Z,99.45
2022-12-06T18:36:53.685Z,99.21
2022-12-06T18:39:24.669Z,99.76
2022-12-06T18:41:53.567Z,100.00
2022-12-06T18:44:21.342Z,100.00
2022-12-06T18:46:48.898Z,100.00
2022-12-06T18:49:16.501Z,100.00
2022-12-06T18:51:43.996Z,100.00
2022-12-06T18:54:13.612Z,100.00
2022-12-06T18:56:43.159Z,100.00
2022-12-06T18:59:12.516Z,100.00
2022-12-06T19:01:41.774Z,100.00
2022-12-06T19:04:13.096Z,100.00
2022-12-06T19:06:40.721Z,100.00
2022-12-06T19:09:13.638Z,100.00
2022-12-06T19:11:45.590Z,100.00
2022-12-06T19:14:13.934Z,100.00
2022-12-06T19:16:43.283Z,100.00
2022-12-06T19:19:16.230Z,100.00
2022-12-06T19:21:45.384Z,100.00
2022-12-06T19:24:15.709Z,100.00
2022-12-06T19:26:44.936Z,100.00
2022-12-06T19:29:13.083Z,100.00
2022-12-06T19:31:40.583Z,100.00
2022-12-06T19:34:13.963Z,100.00
2022-12-06T19:36:41.491Z,100.00
2022-12-06T19:39:08.942Z,100.00
2022-12-06T19:41:57.119Z,100.00
2022-12-06T19:44:25.398Z,100.00
2022-12-06T19:46:53.095Z,100.00
2022-12-06T19:49:23.875Z,100.00
2022-12-06T19:51:52.204Z,100.00
2022-12-06T19:54:22.150Z,100.00
2022-12-06T19:56:50.285Z,100.00
2022-12-06T19:59:17.931Z,100.00
2022-12-06T20:01:48.288Z,100.00
2022-12-06T20:04:17.457Z,100.00
2022-12-06T20:06:45.652Z,100.00
2022-12-06T20:09:13.839Z,100.00
2022-12-06T20:11:59.644Z,100.00
2022-12-06T20:14:27.985Z,100.00
2022-12-06T20:16:57.146Z,100.00
2022-12-06T20:19:25.445Z,100.00
2022-12-06T20:21:53.119Z,100.00
2022-12-06T20:24:22.719Z,100.00
2022-12-06T20:26:53.143Z,100.00
2022-12-06T20:29:21.402Z,100.00
2022-12-06T20:31:51.154Z,100.00
2022-12-06T20:34:20.340Z,100.00
2022-12-06T20:36:48.335Z,100.00
2022-12-06T20:39:19.140Z,100.00
2022-12-06T20:41:46.690Z,99.87
2022-12-06T20:44:14.227Z,100.00
2022-12-06T20:46:41.830Z,100.00
2022-12-06T20:49:09.563Z,100.00
2022-12-06T20:51:38.504Z,100.00
2022-12-06T20:54:07.826Z,100.00
2022-12-06T20:56:37.122Z,100.00
2022-12-06T20:59:06.590Z,100.00
2022-12-06T21:01:38.581Z,100.00
2022-12-06T21:04:06.691Z,100.00
2022-12-06T21:06:34.020Z,100.00
2022-12-06T21:09:06.827Z,100.00
2022-12-06T21:11:34.376Z,100.00
2022-12-06T21:14:03.320Z,100.00
2022-12-06T21:16:32.592Z,100.00
2022-12-06T21:19:02.371Z,99.86
2022-12-06T21:21:32.244Z,100.00
2022-12-06T21:24:00.576Z,100.00
2022-12-06T21:26:30.399Z,100.00
2022-12-06T21:28:58.372Z,100.00
2022-12-06T21:31:26.903Z,100.00
2022-12-06T21:33:54.917Z,100.00
2022-12-06T21:36:22.419Z,100.00
2022-12-06T21:38:50.081Z,100.00
2022-12-06T21:41:17.620Z,100.00
2022-12-06T21:43:46.455Z,100.00
2022-12-06T21:46:16.249Z,100.00
2022-12-06T21:48:45.011Z,100.00
2022-12-06T21:51:14.332Z,100.00
2022-12-06T21:53:42.238Z,100.00
2022-12-06T21:56:11.391Z,100.00
2022-12-06T21:58:38.894Z,100.00
2022-12-06T22:01:09.756Z,100.00
2022-12-06T22:03:38.099Z,100.00
2022-12-06T22:06:06.674Z,100.00
2022-12-06T22:08:34.221Z,100.00
2022-12-06T22:11:02.009Z,100.00
2022-12-06T22:13:29.475Z,100.00
2022-12-06T22:15:56.999Z,100.00
2022-12-06T22:18:25.967Z,100.00
2022-12-06T22:21:00.839Z,100.00
2022-12-06T22:23:28.602Z,100.00
2022-12-06T22:25:56.080Z,100.00
2022-12-06T22:28:23.925Z,100.00
2022-12-06T22:30:51.441Z,100.00
2022-12-06T22:33:20.168Z,100.00
2022-12-06T22:35:48.982Z,100.00
2022-12-06T22:38:16.423Z,99.97
2022-12-06T22:40:43.912Z,100.00
2022-12-06T22:43:11.371Z,100.00
2022-12-06T22:45:38.844Z,100.00
2022-12-06T22:48:06.691Z,99.95
2022-12-06T22:50:34.152Z,100.00
2022-12-06T22:53:03.074Z,100.00
2022-12-06T22:55:30.559Z,100.00
2022-12-06T22:57:58.068Z,100.00
2022-12-06T23:00:26.052Z,100.00
2022-12-06T23:02:53.420Z,100.00
2022-12-06T23:05:20.906Z,100.00
2022-12-06T23:07:48.845Z,100.00
2022-12-06T23:10:17.861Z,100.00
2022-12-06T23:12:45.371Z,100.00
2022-12-06T23:15:12.814Z,100.00
2022-12-06T23:17:40.288Z,100.00
2022-12-06T23:20:09.071Z,100.00
2022-12-06T23:22:44.201Z,100.00
2022-12-06T23:25:11.721Z,99.91
2022-12-06T23:27:40.538Z,98.50
2022-12-06T23:30:09.456Z,98.15
2022-12-06T23:32:36.938Z,98.26
2022-12-06T23:35:05.032Z,97.74
2022-12-06T23:37:35.918Z,97.16
2022-12-06T23:40:03.754Z,96.91
2022-12-06T23:42:31.343Z,96.94
2022-12-06T23:45:00.179Z,96.27
2022-12-06T23:47:27.664Z,96.44
2022-12-06T23:49:55.161Z,96.22
2022-12-06T23:52:22.664Z,95.59
2022-12-06T23:54:50.147Z,94.76
2022-12-06T23:57:25.540Z,94.37
2022-12-06T23:59:53.010Z,94.65
